createdAt,value
2018-08-06T07:24:34.579Z,57.41
2018-08-06T07:27:03.855Z,58.63
2018-08-06T07:29:33.463Z,58.75
2018-08-06T07:32:03.133Z,57.68
2018-08-06T07:34:32.274Z,56.81
2018-08-06T07:37:01.517Z,56.95
2018-08-06T07:39:30.750Z,57.71
2018-08-06T07:42:00.078Z,56.99
2018-08-06T07:44:29.334Z,56.46
2018-08-06T07:46:58.674Z,55.99
2018-08-06T07:49:30.772Z,56.17
2018-08-06T07:52:00.007Z,56.01
2018-08-06T07:54:29.231Z,55.94
2018-08-06T07:56:58.441Z,54.52
2018-08-06T07:59:27.567Z,53.79
2018-08-06T08:01:57.213Z,54.22
2018-08-06T08:04:26.373Z,53.69
2018-08-06T08:06:55.673Z,54.88
2018-08-06T08:09:24.911Z,55.28
2018-08-06T08:11:54.167Z,55.91
2018-08-06T08:14:23.474Z,55.98
2018-08-06T08:16:54.302Z,54.82
2018-08-06T08:19:23.531Z,54.48
2018-08-06T08:21:53.430Z,55.27
2018-08-06T08:24:22.649Z,55.27
2018-08-06T08:26:51.864Z,54.79
2018-08-06T08:29:21.817Z,53.31
2018-08-06T08:31:52.985Z,52.65
2018-08-06T08:34:24.180Z,51.88
2018-08-06T08:36:53.719Z,51.90
2018-08-06T08:42:15.037Z,52.06
2018-08-06T08:47:24.006Z,51.00
2018-08-06T09:03:07.534Z,50.79
2018-08-06T09:09:11.657Z,51.05
2018-08-06T09:14:38.313Z,50.09
2018-08-06T09:17:23.294Z,48.78
2018-08-06T09:20:02.724Z,48.78
2018-08-06T09:32:17.325Z,48.03
2018-08-06T09:34:46.810Z,47.96
2018-08-06T09:37:16.651Z,48.26
2018-08-06T09:39:46.396Z,47.73
2018-08-06T09:42:16.217Z,47.77
2018-08-06T09:44:45.892Z,47.37
2018-08-06T09:47:15.160Z,46.34
2018-08-06T09:49:44.405Z,100.00
2018-08-06T10:54:40.216Z,100.00
2018-08-06T10:57:09.960Z,41.07
2018-08-06T10:59:39.192Z,41.23
2018-08-06T11:02:08.554Z,41.78
2018-08-06T11:04:38.721Z,40.68
2018-08-06T11:07:08.595Z,41.39
2018-08-06T11:09:38.767Z,40.49
2018-08-06T11:12:09.612Z,40.37
2018-08-06T11:14:38.983Z,41.39
2018-08-06T11:17:08.741Z,39.15
2018-08-06T11:19:42.945Z,39.89
2018-08-06T11:22:12.150Z,38.65
2018-08-06T11:24:41.932Z,38.56
2018-08-06T11:27:11.216Z,37.92
2018-08-06T11:29:40.690Z,37.79
2018-08-06T11:32:10.339Z,38.61
2018-08-06T11:34:39.635Z,38.35
2018-08-06T11:37:09.160Z,37.77
2018-08-06T11:39:39.335Z,100.00
2018-08-06T11:42:08.589Z,36.61
2018-08-06T11:44:37.801Z,35.89
2018-08-06T11:47:07.271Z,35.70
2018-08-06T11:49:36.778Z,36.25
2018-08-06T11:52:06.044Z,35.93
2018-08-06T11:54:35.232Z,35.82
2018-08-06T11:57:04.515Z,37.24
2018-08-06T11:59:34.709Z,100.00
2018-08-06T12:02:05.022Z,100.00
2018-08-06T12:04:34.267Z,100.00
2018-08-06T12:34:19.923Z,100.00
2018-08-06T12:36:50.083Z,100.00
2018-08-06T12:39:19.840Z,100.00
2018-08-06T12:41:53.786Z,100.00
2018-08-06T12:44:23.454Z,100.00
2018-08-06T13:19:45.647Z,100.00
2018-08-06T13:22:15.591Z,100.00
2018-08-06T13:24:45.604Z,100.00
2018-08-06T17:12:59.191Z,31.71
2018-08-06T17:15:28.562Z,30.96
2018-08-06T17:17:57.683Z,32.32
2018-08-06T17:20:27.072Z,32.03
2018-08-06T17:22:56.357Z,30.68
2018-08-06T17:25:25.462Z,30.80
2018-08-06T17:27:54.746Z,31.58
2018-08-06T17:30:24.080Z,31.60
2018-08-06T17:32:54.628Z,32.93
2018-08-06T17:35:24.114Z,31.90
2018-08-06T17:37:53.526Z,31.47
2018-08-06T17:40:22.580Z,32.43
2018-08-06T17:42:51.823Z,33.36
2018-08-06T17:45:22.210Z,33.54
2018-08-06T17:47:51.396Z,33.96
2018-08-06T17:50:21.815Z,33.29
2018-08-06T17:52:52.070Z,33.73
2018-08-06T17:55:22.246Z,33.58
2018-08-06T17:57:51.388Z,32.90
2018-08-06T18:00:20.834Z,33.10
2018-08-06T18:02:50.446Z,32.51
2018-08-06T18:05:19.928Z,32.05
2018-08-06T18:07:49.126Z,33.11
2018-08-06T18:10:19.218Z,33.01
2018-08-06T18:12:48.608Z,33.67
2018-08-06T18:15:17.841Z,35.19
2018-08-06T18:17:46.982Z,33.52
2018-08-06T18:20:17.682Z,33.62
2018-08-06T18:22:47.090Z,33.20
2018-08-06T18:25:17.716Z,33.41
2018-08-06T18:27:47.782Z,33.24
2018-08-06T18:30:18.878Z,33.54
2018-08-06T18:32:48.288Z,33.43
2018-08-06T18:35:18.391Z,33.64
2018-08-06T18:37:47.624Z,34.58
2018-08-06T18:40:17.917Z,34.85
2018-08-06T18:42:47.066Z,35.36
2018-08-06T18:45:17.661Z,34.75
2018-08-06T18:47:47.719Z,35.66
2018-08-06T18:50:17.891Z,35.42
2018-08-06T18:52:47.784Z,36.19
2018-08-06T18:55:17.346Z,36.24
2018-08-06T18:57:47.801Z,36.32
2018-08-06T19:00:19.190Z,37.15
2018-08-06T19:02:48.720Z,37.46
2018-08-06T19:05:18.033Z,37.01
2018-08-06T19:07:47.165Z,38.21
2018-08-06T19:10:16.511Z,38.23
2018-08-06T19:12:51.179Z,38.50
2018-08-06T19:15:20.681Z,38.47
2018-08-06T19:17:55.118Z,38.48
2018-08-06T19:20:24.199Z,38.55
2018-08-06T19:22:55.084Z,38.46
2018-08-06T19:25:25.883Z,39.89
2018-08-06T19:27:55.313Z,40.17
2018-08-06T19:30:30.385Z,39.98
2018-08-06T19:33:00.026Z,40.91
2018-08-06T19:35:29.159Z,41.00
2018-08-06T19:37:58.523Z,41.04
2018-08-06T19:40:27.652Z,40.92
2018-08-06T19:43:02.188Z,40.80
2018-08-06T19:45:31.298Z,40.04
2018-08-06T19:48:01.241Z,39.07
2018-08-06T19:50:35.908Z,38.86
2018-08-06T19:53:05.844Z,38.52
2018-08-06T19:55:40.287Z,38.94
2018-08-06T19:58:09.589Z,39.00
2018-08-06T20:00:38.760Z,38.43
2018-08-06T20:03:08.058Z,38.95
2018-08-06T20:05:37.141Z,38.94
2018-08-06T20:08:06.311Z,39.56
2018-08-06T20:10:35.703Z,39.63
2018-08-06T20:13:04.877Z,39.49
2018-08-06T20:15:34.084Z,39.80
2018-08-06T20:18:03.268Z,39.95
2018-08-06T20:20:32.390Z,40.55
2018-08-06T20:23:01.728Z,40.96
2018-08-06T20:25:30.998Z,40.50
2018-08-06T20:28:00.741Z,40.81
2018-08-06T20:30:29.776Z,41.39
2018-08-06T20:32:58.858Z,41.29
2018-08-06T20:35:27.967Z,41.91
2018-08-06T20:37:57.195Z,41.96
2018-08-06T20:40:26.372Z,41.52
2018-08-06T20:42:55.487Z,42.08
2018-08-06T20:45:24.663Z,42.44
2018-08-06T20:47:53.768Z,42.70
2018-08-06T20:50:23.726Z,43.50
2018-08-06T20:52:53.770Z,43.12
2018-08-06T20:55:22.857Z,44.09
2018-08-06T20:57:52.087Z,43.56
2018-08-06T21:00:23.476Z,43.41
2018-08-06T21:02:52.822Z,44.34
2018-08-06T21:05:22.064Z,44.39
2018-08-06T21:07:51.458Z,45.38
2018-08-06T21:10:21.083Z,45.34
2018-08-06T21:12:50.263Z,45.73
2018-08-06T21:15:19.511Z,45.49
2018-08-06T21:17:48.675Z,46.24
2018-08-06T21:20:19.171Z,46.36
2018-08-06T21:22:49.225Z,46.55
2018-08-06T21:25:18.343Z,46.92
2018-08-06T21:27:48.473Z,45.54
2018-08-06T21:30:19.552Z,45.49
2018-08-06T21:32:53.531Z,46.02
2018-08-06T21:35:23.972Z,45.96
2018-08-06T21:37:54.002Z,46.00
2018-08-06T21:40:24.190Z,45.99
2018-08-06T21:42:53.528Z,45.78
2018-08-06T21:45:22.777Z,45.91
2018-08-06T21:47:51.938Z,45.19
2018-08-06T21:50:21.064Z,45.54
2018-08-06T21:52:50.337Z,46.09
2018-08-06T21:55:19.445Z,45.43
2018-08-06T21:57:48.523Z,45.39
2018-08-06T22:00:28.723Z,45.72
2018-08-06T22:02:57.842Z,44.89
2018-08-06T22:05:27.121Z,45.59
2018-08-06T22:07:56.260Z,44.97
2018-08-06T22:10:25.336Z,47.51
2018-08-06T22:12:54.470Z,46.63
2018-08-06T22:15:23.637Z,46.51
2018-08-06T22:17:52.737Z,44.95
2018-08-06T22:20:21.791Z,45.41
2018-08-06T22:22:50.825Z,46.00
2018-08-06T22:25:19.936Z,46.03
2018-08-06T22:27:49.066Z,46.13
2018-08-06T22:30:18.292Z,46.68
2018-08-06T22:32:47.410Z,45.98
2018-08-06T22:35:16.470Z,46.57
2018-08-06T22:37:45.526Z,46.55
2018-08-06T22:40:14.661Z,46.17
2018-08-06T22:42:43.664Z,46.78
2018-08-06T22:45:13.329Z,46.74
2018-08-06T22:47:43.236Z,46.00
2018-08-06T22:50:13.259Z,46.29
2018-08-06T22:52:42.569Z,45.79
2018-08-06T22:55:12.533Z,46.56
2018-08-06T22:57:42.206Z,46.81
2018-08-06T23:00:13.595Z,46.39
2018-08-06T23:02:42.896Z,45.74
2018-08-06T23:05:13.282Z,46.89
2018-08-06T23:07:42.311Z,46.76
2018-08-06T23:10:13.778Z,47.33
2018-08-06T23:12:42.879Z,47.24
2018-08-06T23:15:13.655Z,47.21
2018-08-06T23:17:43.226Z,47.67
2018-08-06T23:20:12.300Z,47.72
2018-08-06T23:22:41.379Z,47.29
2018-08-06T23:25:10.476Z,47.27
2018-08-06T23:27:39.594Z,47.69
2018-08-06T23:30:10.845Z,48.33
2018-08-06T23:32:40.473Z,48.72
2018-08-06T23:35:11.000Z,48.21
2018-08-06T23:37:41.233Z,48.52
2018-08-06T23:40:11.496Z,48.52
2018-08-06T23:42:41.103Z,48.77
2018-08-06T23:45:11.572Z,48.73
2018-08-06T23:47:41.322Z,48.83
2018-08-06T23:50:12.241Z,49.14
2018-08-06T23:52:42.883Z,49.21
2018-08-06T23:55:13.289Z,49.45
2018-08-06T23:57:42.490Z,49.22
